INFORMACIÓN METAR y TAF
METAR FOR EFHK
ADDS - METARS form results

(1135 UTC 10 August 2020)
Data provider http://aviationweather.gov/metar/data/
 
METAR text: EFHK 101120Z 35010KT 310V030 CAVOK 21/08 Q1021 NOSIG
Conditions at: EFHK (HELSINKI/VANTAA , FI) observed 1120 UTC 10 August 2020
Temperature: 21.0°C (70°F)
Dewpoint: 8.0°C (46°F) [RH = 43%]
Pressure (altimeter): 30.15 inches Hg (1021.0 mb)
Winds: from the N (350 degrees) at 12 MPH (10 knots; 5.1 m/s)
Visibility: 6 or more miles (10+ km)
Ceiling: ceiling and visibility are OK
Clouds: unknown
Weather: no significant weather observed at this time

METAR text: EFHK 101050Z 01008KT 330V040 CAVOK 21/09 Q1021 NOSIG
Conditions at: EFHK (HELSINKI/VANTAA , FI) observed 1050 UTC 10 August 2020
Temperature: 21.0°C (70°F)
Dewpoint: 9.0°C (48°F) [RH = 46%]
Pressure (altimeter): 30.15 inches Hg (1021.0 mb)
Winds: from the N (10 degrees) at 9 MPH (8 knots; 4.1 m/s)
Visibility: 6 or more miles (10+ km)
Ceiling: ceiling and visibility are OK
Clouds: unknown
Weather: no significant weather observed at this time

Forecast for: EFHK (HELSINKI/VANTAA , FI)
Text: TAF EFHK 100822Z 1009/1109 36009KT 9999 FEW030
Forecast period: 0900 UTC 10 August 2020 to 0900 UTC 11 August 2020
Forecast type: FROM: standard forecast or significant change
Winds: from the N (360 degrees) at 10 MPH (9 knots; 4.6 m/s)
Visibility: 6 or more miles (10+ km)
Ceiling: at least 12,000 feet AGL
Clouds: few clouds at 3000 feet AGL
Weather: no significant weather forecast for this period

MAPA DE AEROPUERTO

INFORMACIÓN DE PISTA
Pista 04L Longitud 10039 ft Ancho 197 ft
Elevación 133 ft Umbral desplazado 0 ft Rumbo de pista 48
Pista 22R Longitud 10039 ft Ancho 197 ft
Elevación 178 ft Umbral desplazado 196 ft Rumbo de pista 228
Pista 04R Longitud 11286 ft Ancho 197 ft
Elevación 150 ft Umbral desplazado 787 ft Rumbo de pista 48
Pista 22L Longitud 11286 ft Ancho 197 ft
Elevación 147 ft Umbral desplazado 0 ft Rumbo de pista 228
Pista 15 Longitud 9518 ft Ancho 197 ft
Elevación 162 ft Umbral desplazado 0 ft Rumbo de pista 154
Pista 33 Longitud 9518 ft Ancho 197 ft
Elevación 146 ft Umbral desplazado 0 ft Rumbo de pista 334

FRECUANCIAS DEL AEROPUERTO
Tipo APP Nombre APP Frecuencia 119.1 MHZ
Tipo APP Nombre Frecuencia 129.85 MHZ
Tipo ATIS Nombre HEL VOR Frecuencia 114.2 MHZ
Tipo ATIS Nombre Frecuencia 135.075 MHZ
Tipo DEL Nombre Frecuencia 118.125 MHZ
Tipo GND Nombre GND Frecuencia 121.8 MHZ
Tipo PMSV Nombre PMSV METRO Frecuencia 125.1 MHZ
Tipo RMP Nombre RMP Frecuencia 121.65 MHZ
Tipo TWR Nombre 22L/04R an Frecuencia 118.6 MHZ
Tipo TWR Nombre 22R/04L Frecuencia 118.85 MHZ

RADIO AYUDAS DEL AEROPUERTO
Tipo NDB Nombre Espoo Frecuencia 381 KHZ
Tipo VOR-DME Nombre Helsinki Frecuencia 114200 KHZ
Tipo NDB Nombre Korso Frecuencia 322 KHZ